Time;durP1;ratioP1;P1;durP2;ratioP2;P2;SDS_P1;SDS_P2;PMS_P1;PMS_P2;Temp;Humidity;BMP_temperature;BMP_pressure;BME280_temperature;BME280_humidity;BME280_pressure;Samples;Min_cycle;Max_cycle;Signal;HPM_P1;HPM_P2
2023/10/29 00:01:39;;;;;;;3.83;1.60;;;;;;;12.79;100.00;99156.41;5007993;28;20035;-67
2023/10/29 00:04:05;;;;;;;2.83;1.33;;;;;;;12.80;100.00;99158.69;4992373;28;20030;-67
2023/10/29 00:06:31;;;;;;;2.30;1.25;;;;;;;12.86;99.94;99153.59;5000294;28;20537;-67
2023/10/29 00:08:56;;;;;;;1.52;1.05;;;;;;;12.84;99.70;99142.41;4991947;28;20046;-68
2023/10/29 00:11:22;;;;;;;3.72;1.23;;;;;;;12.93;99.70;99146.16;4992721;28;20046;-68
2023/10/29 00:13:48;;;;;;;4.68;1.98;;;;;;;12.79;100.00;99137.47;4975504;28;20034;-68
2023/10/29 00:16:13;;;;;;;5.45;1.65;;;;;;;12.80;100.00;99142.47;4991728;28;20088;-67
2023/10/29 00:18:42;;;;;;;2.22;1.40;;;;;;;12.83;100.00;99140.91;4991838;28;20037;-68
2023/10/29 00:21:07;;;;;;;3.53;1.63;;;;;;;12.71;100.00;99134.13;5006160;28;20521;-68
2023/10/29 00:23:33;;;;;;;2.13;1.40;;;;;;;12.85;99.43;99128.53;4986850;28;20038;-67
2023/10/29 00:25:59;;;;;;;2.35;1.42;;;;;;;12.76;99.89;99119.38;4991965;28;20030;-68
2023/10/29 00:28:27;;;;;;;1.88;1.27;;;;;;;12.86;100.00;99116.53;4988254;28;20042;-67
2023/10/29 00:30:56;;;;;;;3.28;1.67;;;;;;;12.83;99.97;99117.38;4991218;28;20038;-68
2023/10/29 00:33:22;;;;;;;2.20;1.42;;;;;;;12.76;100.00;99108.56;4991284;28;20121;-67
2023/10/29 00:35:47;;;;;;;1.83;1.48;;;;;;;12.59;100.00;99104.94;4988957;28;20109;-69
2023/10/29 00:38:13;;;;;;;1.45;1.23;;;;;;;12.67;100.00;99090.94;4989805;28;20061;-67
2023/10/29 00:40:39;;;;;;;2.30;1.30;;;;;;;12.78;100.00;99090.00;5003557;28;20029;-67
2023/10/29 00:43:07;;;;;;;3.00;1.67;;;;;;;12.85;100.00;99061.00;4991162;28;20046;-67
2023/10/29 00:45:33;;;;;;;1.73;1.25;;;;;;;12.95;99.71;99067.41;4990924;28;20061;-68
2023/10/29 00:48:00;;;;;;;3.35;1.77;;;;;;;12.92;99.82;99063.56;4993703;28;20063;-68
2023/10/29 00:50:28;;;;;;;1.75;1.35;;;;;;;12.91;99.60;99075.53;5009058;28;20049;-67
2023/10/29 00:52:53;;;;;;;3.53;1.58;;;;;;;12.83;99.12;99074.13;4990855;28;20034;-68
2023/10/29 00:55:19;;;;;;;4.15;1.33;;;;;;;12.90;98.91;99063.22;4973865;28;20109;-67
2023/10/29 00:57:45;;;;;;;2.75;1.60;;;;;;;12.84;99.79;99066.78;4989364;28;20019;-68
2023/10/29 01:00:11;;;;;;;3.65;1.60;;;;;;;12.78;100.00;99063.78;4991705;28;20126;-68
2023/10/29 01:02:37;;;;;;;3.30;1.30;;;;;;;12.71;99.17;99074.69;4991010;28;20034;-68
2023/10/29 01:05:04;;;;;;;2.55;1.52;;;;;;;12.71;100.00;99082.78;4973640;28;21742;-68
2023/10/29 01:07:31;;;;;;;2.40;1.10;;;;;;;12.75;100.00;99085.44;4989035;28;20446;-68
2023/10/29 01:09:58;;;;;;;1.92;1.30;;;;;;;12.85;100.00;99063.69;4987360;28;20514;-68
2023/10/29 01:12:26;;;;;;;1.92;1.40;;;;;;;12.89;99.72;99034.66;4977973;28;20121;-68
2023/10/29 01:14:52;;;;;;;3.20;1.38;;;;;;;12.72;100.00;99037.66;4986703;28;20490;-68
2023/10/29 01:17:20;;;;;;;1.38;1.08;;;;;;;12.70;100.00;99046.13;5006161;28;20029;-67
2023/10/29 01:19:46;;;;;;;2.67;1.48;;;;;;;12.81;100.00;99054.88;4992621;28;20511;-68
2023/10/29 01:22:11;;;;;;;1.60;1.20;;;;;;;12.96;100.00;99039.19;4989119;28;20048;-69
2023/10/29 01:24:39;;;;;;;3.10;1.58;;;;;;;12.96;100.00;99039.97;4986607;28;20027;-68
2023/10/29 01:27:07;;;;;;;2.35;1.10;;;;;;;12.89;100.00;99042.75;4990007;28;20136;-68
2023/10/29 01:29:33;;;;;;;2.10;1.27;;;;;;;12.90;100.00;99038.13;4989313;28;20053;-68
2023/10/29 01:31:58;;;;;;;3.40;1.30;;;;;;;12.94;100.00;99030.72;4991198;28;20463;-68
2023/10/29 01:34:27;;;;;;;2.35;1.20;;;;;;;13.07;98.61;99037.88;4972979;28;20125;-67
2023/10/29 01:36:52;;;;;;;1.70;1.30;;;;;;;12.85;99.81;99030.50;5004307;28;20034;-68
2023/10/29 01:39:18;;;;;;;2.55;1.42;;;;;;;12.98;99.97;99029.50;4991020;28;20051;-68
2023/10/29 01:41:43;;;;;;;3.78;1.30;;;;;;;13.01;99.79;99033.31;4996089;28;20042;-67
2023/10/29 01:44:09;;;;;;;2.88;1.45;;;;;;;13.04;99.76;99030.59;4991328;28;20114;-67
2023/10/29 01:46:34;;;;;;;2.83;1.75;;;;;;;13.09;99.64;99023.94;4992536;28;20143;-67
2023/10/29 01:49:01;;;;;;;3.03;0.80;;;;;;;13.13;99.69;99020.03;5007435;28;20041;-67
2023/10/29 01:51:26;;;;;;;1.92;1.25;;;;;;;12.95;99.82;99013.38;4991823;28;20027;-68
2023/10/29 01:53:52;;;;;;;2.30;1.25;;;;;;;12.98;100.00;99017.94;4991019;28;20449;-68
2023/10/29 01:56:17;;;;;;;4.07;1.48;;;;;;;13.14;99.84;99026.94;4982443;28;20031;-68
2023/10/29 01:58:42;;;;;;;4.50;1.58;;;;;;;13.09;100.00;99010.44;4986783;28;20080;-67
2023/10/29 02:01:10;;;;;;;1.05;0.95;;;;;;;13.10;99.84;99015.44;5004655;28;20026;-68
2023/10/29 02:03:35;;;;;;;2.65;1.20;;;;;;;13.17;99.67;99009.16;4988569;28;20048;-67
2023/10/29 02:06:01;;;;;;;1.85;1.40;;;;;;;13.14;100.00;99001.88;4985983;28;20438;-68
2023/10/29 02:08:26;;;;;;;1.85;0.85;;;;;;;13.14;100.00;99007.28;4992754;28;20563;-68
2023/10/29 02:10:52;;;;;;;3.58;1.10;;;;;;;13.09;100.00;98999.63;4993214;28;20058;-68
2023/10/29 02:13:17;;;;;;;5.85;0.90;;;;;;;13.00;100.00;98993.97;4989196;28;20394;-68
2023/10/29 02:15:43;;;;;;;2.60;1.42;;;;;;;13.08;100.00;98995.41;4988627;28;20034;-67
2023/10/29 02:18:11;;;;;;;1.42;1.17;;;;;;;13.04;100.00;98981.19;4995168;28;20037;-68
2023/10/29 02:20:37;;;;;;;2.75;1.30;;;;;;;13.03;100.00;98977.72;4990955;28;20049;-67
2023/10/29 02:23:03;;;;;;;1.70;1.02;;;;;;;13.12;100.00;98983.38;4991475;28;20022;-67
2023/10/29 02:25:28;;;;;;;2.40;1.35;;;;;;;13.12;100.00;98967.16;4983425;28;20034;-67
2023/10/29 02:27:53;;;;;;;1.33;1.13;;;;;;;13.06;100.00;98963.41;5005851;28;20034;-68
2023/10/29 02:30:19;;;;;;;1.35;1.20;;;;;;;13.11;100.00;98954.81;4986701;28;20068;-67
2023/10/29 02:32:45;;;;;;;1.50;1.00;;;;;;;13.14;100.00;98945.09;4989506;28;20049;-67
2023/10/29 02:35:13;;;;;;;1.20;1.10;;;;;;;13.23;100.00;98942.63;4989903;28;20057;-68
2023/10/29 02:37:38;;;;;;;1.75;1.15;;;;;;;13.21;100.00;98942.28;4994844;28;20173;-67
2023/10/29 02:40:05;;;;;;;8.85;1.20;;;;;;;13.05;100.00;98926.72;4988630;28;20457;-68
2023/10/29 02:42:30;;;;;;;1.38;1.10;;;;;;;13.03;100.00;98918.25;4979527;28;20427;-68
2023/10/29 02:44:58;;;;;;;1.80;1.13;;;;;;;13.13;100.00;98911.91;4989602;28;20093;-68
2023/10/29 02:47:24;;;;;;;1.33;0.88;;;;;;;12.94;100.00;98909.13;4989909;28;20097;-67
2023/10/29 02:49:49;;;;;;;1.42;1.30;;;;;;;13.12;100.00;98906.91;4993637;28;20038;-68
2023/10/29 02:52:15;;;;;;;2.53;1.60;;;;;;;13.09;100.00;98897.69;4991916;28;20045;-68
2023/10/29 02:54:40;;;;;;;3.70;1.05;;;;;;;13.22;100.00;98895.91;4986246;28;20033;-67
2023/10/29 02:57:06;;;;;;;2.28;1.27;;;;;;;13.14;100.00;98894.50;4994673;28;20034;-68
2023/10/29 02:59:32;;;;;;;2.35;1.10;;;;;;;13.06;100.00;98884.25;4995258;28;20710;-67
2023/10/29 03:01:57;;;;;;;3.13;1.10;;;;;;;12.91;100.00;98891.06;4992855;28;20032;-68
2023/10/29 03:04:23;;;;;;;1.63;0.93;;;;;;;13.09;100.00;98883.41;4992528;28;20486;-68
2023/10/29 03:06:49;;;;;;;1.30;1.00;;;;;;;13.11;100.00;98881.81;5009778;28;20533;-67
2023/10/29 03:09:14;;;;;;;1.58;1.08;;;;;;;12.96;100.00;98874.38;4992735;28;20060;-67
2023/10/29 03:11:39;;;;;;;5.13;1.10;;;;;;;13.03;100.00;98874.22;4994901;28;20034;-68
2023/10/29 03:14:05;;;;;;;4.55;1.20;;;;;;;12.65;100.00;98860.25;5010046;28;20042;-67
2023/10/29 03:16:30;;;;;;;1.80;1.00;;;;;;;12.86;100.00;98859.09;4994252;28;20038;-68
2023/10/29 03:18:56;;;;;;;2.00;1.13;;;;;;;13.07;100.00;98864.16;4997122;28;20022;-68
2023/10/29 03:21:21;;;;;;;3.08;1.70;;;;;;;13.20;100.00;98840.75;5008899;28;20034;-67
2023/10/29 03:23:47;;;;;;;1.88;1.15;;;;;;;13.22;100.00;98849.19;4981254;28;20073;-68
2023/10/29 03:26:12;;;;;;;1.48;1.35;;;;;;;13.15;100.00;98841.22;4976800;28;20458;-67
2023/10/29 03:28:39;;;;;;;1.75;1.38;;;;;;;13.07;100.00;98835.19;4998605;28;20041;-67
2023/10/29 03:31:13;;;;;;;2.95;1.42;;;;;;;13.24;100.00;98836.78;4989551;28;20400;-68
2023/10/29 03:33:39;;;;;;;2.03;1.20;;;;;;;13.10;100.00;98828.97;4998446;28;20042;-68
2023/10/29 03:36:05;;;;;;;2.75;1.30;;;;;;;13.21;100.00;98815.22;4994523;28;20085;-67
2023/10/29 03:38:30;;;;;;;2.83;1.60;;;;;;;13.06;100.00;98801.25;4992711;28;20486;-68
2023/10/29 03:40:56;;;;;;;1.77;1.20;;;;;;;13.15;100.00;98804.13;5009887;28;20180;-67
2023/10/29 03:43:21;;;;;;;2.63;1.80;;;;;;;13.12;100.00;98806.91;4993815;28;20117;-67
2023/10/29 03:45:47;;;;;;;1.95;1.35;;;;;;;13.11;100.00;98795.34;4991505;28;20026;-67
2023/10/29 03:48:14;;;;;;;1.75;1.48;;;;;;;13.14;100.00;98783.69;5008285;28;20049;-67
2023/10/29 03:50:39;;;;;;;1.80;1.45;;;;;;;13.07;100.00;98777.66;4977464;28;20036;-67
2023/10/29 03:53:05;;;;;;;1.45;1.17;;;;;;;13.16;100.00;98783.28;4992948;28;20109;-68
2023/10/29 03:55:30;;;;;;;2.22;1.00;;;;;;;12.78;100.00;98768.56;4989739;28;20162;-67
2023/10/29 03:57:56;;;;;;;2.42;1.48;;;;;;;12.96;100.00;98769.00;4989404;28;20074;-67
2023/10/29 04:00:22;;;;;;;1.98;1.20;;;;;;;13.02;100.00;98759.22;4993603;28;20030;-67
2023/10/29 04:02:48;;;;;;;2.22;1.30;;;;;;;12.97;100.00;98755.06;4989784;28;20034;-67
2023/10/29 04:05:16;;;;;;;2.75;1.10;;;;;;;12.72;100.00;98751.34;5008668;28;20128;-67
2023/10/29 04:07:41;;;;;;;1.00;0.90;;;;;;;12.73;100.00;98748.22;5006201;28;20018;-68
2023/10/29 04:10:07;;;;;;;1.38;1.10;;;;;;;13.00;100.00;98756.16;4992311;28;20091;-68
2023/10/29 04:12:36;;;;;;;1.40;1.00;;;;;;;13.14;100.00;98753.94;4996665;28;20042;-68
2023/10/29 04:15:01;;;;;;;0.98;0.80;;;;;;;13.06;100.00;98758.00;4990243;28;20034;-67
2023/10/29 04:17:27;;;;;;;0.88;0.73;;;;;;;13.20;100.00;98735.31;4992224;28;20034;-68
2023/10/29 04:19:53;;;;;;;1.67;0.98;;;;;;;13.12;100.00;98745.53;4994072;28;20034;-68
2023/10/29 04:22:18;;;;;;;2.50;1.33;;;;;;;13.17;100.00;98749.66;4990680;28;20031;-67
2023/10/29 04:24:44;;;;;;;0.95;0.88;;;;;;;13.12;100.00;98753.63;4990924;28;20026;-68
2023/10/29 04:27:10;;;;;;;1.08;0.95;;;;;;;13.11;100.00;98759.44;4991851;28;20096;-67
2023/10/29 04:29:35;;;;;;;2.97;1.08;;;;;;;12.95;100.00;98740.47;4993155;28;20053;-67
2023/10/29 04:32:01;;;;;;;2.15;1.17;;;;;;;13.16;100.00;98748.16;4992192;28;20066;-67
2023/10/29 04:34:26;;;;;;;1.90;0.90;;;;;;;13.17;100.00;98723.41;4993299;28;20041;-67
2023/10/29 04:36:52;;;;;;;1.50;0.98;;;;;;;13.31;100.00;98728.50;4990996;28;20019;-70
2023/10/29 04:39:19;;;;;;;1.38;1.08;;;;;;;13.26;100.00;98728.22;4991559;28;20038;-67
2023/10/29 04:41:46;;;;;;;1.75;1.02;;;;;;;13.43;100.00;98725.13;4997036;28;20033;-67
2023/10/29 04:44:12;;;;;;;1.10;0.75;;;;;;;13.14;100.00;98723.47;4991442;28;20030;-67
2023/10/29 04:46:37;;;;;;;1.20;1.02;;;;;;;13.25;100.00;98722.06;4984907;28;20033;-67
2023/10/29 04:49:03;;;;;;;1.48;1.00;;;;;;;13.35;100.00;98714.91;4990384;28;20046;-67
2023/10/29 04:51:30;;;;;;;1.30;1.10;;;;;;;13.40;100.00;98723.28;4993315;28;20027;-67
2023/10/29 04:53:56;;;;;;;2.15;1.45;;;;;;;13.23;100.00;98713.63;4991401;28;20038;-67
2023/10/29 04:56:21;;;;;;;2.17;1.58;;;;;;;13.39;100.00;98710.91;4991069;28;20045;-67
2023/10/29 04:58:50;;;;;;;1.90;1.15;;;;;;;13.43;100.00;98700.78;4992506;28;20123;-67
2023/10/29 05:01:17;;;;;;;1.65;1.55;;;;;;;13.38;100.00;98711.34;5006692;28;20490;-67
2023/10/29 05:03:46;;;;;;;1.48;1.17;;;;;;;13.44;100.00;98706.97;4989431;28;20065;-67
2023/10/29 05:06:21;;;;;;;3.03;1.38;;;;;;;13.41;100.00;98697.00;4990886;28;20033;-67
2023/10/29 05:08:47;;;;;;;1.63;1.33;;;;;;;13.45;100.00;98686.88;4992121;28;20045;-67
2023/10/29 05:11:13;;;;;;;1.83;1.45;;;;;;;13.50;100.00;98689.06;4989565;28;20038;-67
2023/10/29 05:13:39;;;;;;;2.58;1.88;;;;;;;13.30;100.00;98688.34;4990622;28;20018;-67
2023/10/29 05:16:05;;;;;;;5.75;1.42;;;;;;;13.32;100.00;98675.16;4992181;28;20034;-67
2023/10/29 05:18:31;;;;;;;2.72;1.20;;;;;;;13.32;100.00;98661.66;4992482;28;20110;-67
2023/10/29 05:20:56;;;;;;;1.42;1.20;;;;;;;13.39;100.00;98669.63;4991932;28;20167;-68
2023/10/29 05:23:21;;;;;;;1.85;1.20;;;;;;;13.43;100.00;98664.88;4987157;28;20137;-67
2023/10/29 05:25:47;;;;;;;1.83;1.20;;;;;;;13.50;100.00;98668.19;4995848;28;20045;-67
2023/10/29 05:28:12;;;;;;;1.42;1.15;;;;;;;13.29;100.00;98655.16;4989711;28;20034;-67
2023/10/29 05:30:39;;;;;;;1.73;1.05;;;;;;;13.53;100.00;98647.63;4992107;28;20502;-67
2023/10/29 05:33:05;;;;;;;1.80;1.30;;;;;;;13.66;100.00;98642.31;4990743;28;20030;-67
2023/10/29 05:35:30;;;;;;;1.50;1.08;;;;;;;13.65;100.00;98638.84;4992096;28;20029;-68
2023/10/29 05:37:55;;;;;;;1.02;0.90;;;;;;;13.71;100.00;98631.72;4987037;28;20038;-67
2023/10/29 05:40:21;;;;;;;3.33;1.52;;;;;;;13.71;100.00;98637.13;5008273;28;20085;-67
2023/10/29 05:42:46;;;;;;;2.38;1.40;;;;;;;13.75;100.00;98632.41;5007208;28;20030;-67
2023/10/29 05:45:12;;;;;;;1.35;1.05;;;;;;;13.72;100.00;98641.38;4988254;28;20029;-67
2023/10/29 05:47:37;;;;;;;1.42;1.00;;;;;;;13.79;100.00;98630.38;4991447;28;20498;-69
2023/10/29 05:50:06;;;;;;;4.05;1.40;;;;;;;13.70;100.00;98641.03;5002511;28;20045;-67
2023/10/29 05:52:32;;;;;;;1.55;1.13;;;;;;;13.70;100.00;98646.44;5007812;28;20045;-67
2023/10/29 05:55:00;;;;;;;1.27;1.02;;;;;;;13.58;100.00;98650.59;4994211;28;20034;-68
2023/10/29 05:57:26;;;;;;;1.55;1.05;;;;;;;13.70;100.00;98653.81;4990182;28;20025;-67
2023/10/29 05:59:51;;;;;;;1.60;1.00;;;;;;;13.78;100.00;98653.19;4989132;28;20038;-67
2023/10/29 06:02:17;;;;;;;1.48;1.17;;;;;;;13.70;100.00;98641.03;4988408;28;20045;-67
2023/10/29 06:04:43;;;;;;;1.60;1.00;;;;;;;13.76;100.00;98655.56;4988757;28;20034;-67
2023/10/29 06:07:08;;;;;;;1.25;1.00;;;;;;;13.71;100.00;98647.97;4990003;28;20048;-68
2023/10/29 06:09:34;;;;;;;1.38;1.08;;;;;;;13.69;100.00;98657.69;4990736;28;20034;-67
2023/10/29 06:11:59;;;;;;;1.55;0.98;;;;;;;13.68;100.00;98653.47;4990422;28;20399;-67
2023/10/29 06:14:25;;;;;;;1.48;1.02;;;;;;;13.77;100.00;98653.59;4980412;28;20117;-67
2023/10/29 06:16:56;;;;;;;1.85;0.90;;;;;;;13.86;100.00;98651.09;5003296;28;20038;-67
2023/10/29 06:19:24;;;;;;;1.30;0.77;;;;;;;13.86;100.00;98656.50;4990342;28;20037;-67
2023/10/29 06:21:50;;;;;;;1.00;0.90;;;;;;;13.80;100.00;98661.63;4986679;28;20023;-67
2023/10/29 06:24:16;;;;;;;1.33;1.10;;;;;;;13.87;100.00;98661.47;4993395;28;20040;-67
2023/10/29 06:26:41;;;;;;;1.38;1.02;;;;;;;13.90;100.00;98666.03;5012201;28;20034;-67
2023/10/29 06:29:08;;;;;;;1.27;1.08;;;;;;;14.02;100.00;98648.31;5013392;28;20068;-67
2023/10/29 06:31:34;;;;;;;2.08;1.10;;;;;;;13.93;100.00;98648.94;4997635;28;20026;-67
2023/10/29 06:34:00;;;;;;;1.52;0.88;;;;;;;14.04;100.00;98641.31;4996814;28;20183;-68
2023/10/29 06:36:25;;;;;;;2.28;0.82;;;;;;;14.08;100.00;98633.84;4995986;28;20030;-68
2023/10/29 06:38:50;;;;;;;3.58;1.15;;;;;;;14.08;100.00;98643.91;4994460;28;20044;-68
2023/10/29 06:41:16;;;;;;;2.08;1.30;;;;;;;13.96;100.00;98658.91;4998457;28;20187;-67
2023/10/29 06:43:44;;;;;;;2.67;0.82;;;;;;;14.10;100.00;98652.38;4993960;28;20019;-68
2023/10/29 06:46:10;;;;;;;1.65;0.82;;;;;;;13.98;100.00;98648.41;4995000;28;20053;-67
2023/10/29 06:48:41;;;;;;;0.70;0.70;;;;;;;13.92;100.00;98650.13;4999219;28;20497;-67
2023/10/29 06:51:14;;;;;;;0.93;0.70;;;;;;;13.99;100.00;98649.94;4993665;28;20069;-67
2023/10/29 06:53:40;;;;;;;3.15;0.90;;;;;;;14.19;100.00;98652.50;4988414;28;20030;-68
2023/10/29 06:56:06;;;;;;;1.02;0.95;;;;;;;14.16;100.00;98643.31;5000161;28;20553;-68
2023/10/29 06:58:33;;;;;;;1.05;0.52;;;;;;;14.18;100.00;98634.75;4989895;28;20030;-68
2023/10/29 07:01:05;;;;;;;5.28;1.30;;;;;;;14.24;100.00;98643.88;4994184;28;20133;-67
2023/10/29 07:03:32;;;;;;;1.73;1.00;;;;;;;14.33;100.00;98644.03;4992800;28;20038;-67
2023/10/29 07:06:09;;;;;;;2.33;1.00;;;;;;;14.27;100.00;98645.72;5012224;28;20030;-67
2023/10/29 07:08:35;;;;;;;1.48;1.05;;;;;;;14.30;100.00;98650.31;5013864;28;20569;-67
2023/10/29 07:11:02;;;;;;;0.95;0.80;;;;;;;14.41;100.00;98645.34;5002794;28;20542;-67
2023/10/29 07:13:29;;;;;;;1.77;0.70;;;;;;;14.41;100.00;98653.47;4991294;28;20038;-69
2023/10/29 07:15:55;;;;;;;0.55;0.55;;;;;;;14.33;100.00;98646.72;4996456;28;20125;-68
2023/10/29 07:18:24;;;;;;;1.30;0.90;;;;;;;14.33;100.00;98652.91;4995914;28;20129;-68
2023/10/29 07:20:53;;;;;;;0.80;0.73;;;;;;;14.22;100.00;98655.13;4998773;28;20118;-67
2023/10/29 07:23:20;;;;;;;1.75;1.42;;;;;;;14.11;100.00;98632.97;4996179;28;20038;-67
2023/10/29 07:25:47;;;;;;;1.42;0.90;;;;;;;14.30;100.00;98648.34;5012493;28;20497;-67
2023/10/29 07:28:14;;;;;;;4.00;0.82;;;;;;;14.34;100.00;98651.72;4992826;28;20109;-68
2023/10/29 07:30:39;;;;;;;1.73;0.70;;;;;;;14.47;100.00;98638.22;4997637;28;20453;-67
2023/10/29 07:33:05;;;;;;;2.10;0.75;;;;;;;14.42;100.00;98644.16;4997057;28;20117;-67
2023/10/29 07:35:31;;;;;;;1.02;0.88;;;;;;;14.46;100.00;98659.13;4994442;28;20430;-68
2023/10/29 07:37:56;;;;;;;0.60;0.60;;;;;;;14.47;100.00;98654.47;5007877;28;20112;-67
2023/10/29 07:40:22;;;;;;;1.40;0.90;;;;;;;14.48;100.00;98656.75;4991366;28;20081;-69
2023/10/29 07:42:47;;;;;;;1.08;0.85;;;;;;;14.51;100.00;98660.56;4992412;28;20038;-68
2023/10/29 07:45:13;;;;;;;0.98;0.55;;;;;;;14.44;100.00;98655.31;5008523;28;20286;-68
2023/10/29 07:47:38;;;;;;;1.10;0.73;;;;;;;14.60;100.00;98646.38;4992044;28;20487;-68
2023/10/29 07:50:04;;;;;;;1.88;0.70;;;;;;;14.61;100.00;98656.03;4992922;28;20085;-67
2023/10/29 07:52:30;;;;;;;0.75;0.65;;;;;;;14.67;100.00;98657.00;4993070;28;20101;-67
2023/10/29 07:54:55;;;;;;;0.68;0.60;;;;;;;14.61;100.00;98658.72;4988323;28;20121;-67
2023/10/29 07:57:21;;;;;;;2.05;1.10;;;;;;;14.67;100.00;98659.72;4991272;28;20022;-67
2023/10/29 07:59:46;;;;;;;0.60;0.60;;;;;;;14.65;100.00;98659.38;4992749;28;20073;-69
2023/10/29 08:02:12;;;;;;;0.40;0.40;;;;;;;14.71;100.00;98663.84;4994134;28;20052;-67
2023/10/29 08:04:37;;;;;;;0.70;0.70;;;;;;;14.76;100.00;98655.19;4993667;28;20026;-67
2023/10/29 08:07:04;;;;;;;0.82;0.65;;;;;;;14.88;100.00;98645.53;4990520;28;20030;-67
2023/10/29 08:09:29;;;;;;;1.85;0.90;;;;;;;14.80;100.00;98644.22;4993029;28;20108;-67
2023/10/29 08:11:55;;;;;;;2.88;0.82;;;;;;;14.87;100.00;98658.34;4993023;28;20030;-68
2023/10/29 08:14:21;;;;;;;0.47;0.45;;;;;;;14.85;100.00;98663.41;4997238;28;20030;-68
2023/10/29 08:16:49;;;;;;;1.10;0.70;;;;;;;14.83;100.00;98660.38;4992606;28;20026;-67
2023/10/29 08:19:15;;;;;;;2.70;0.98;;;;;;;14.86;100.00;98648.69;4995533;28;20142;-68
2023/10/29 08:21:40;;;;;;;1.38;0.73;;;;;;;14.92;100.00;98657.03;4991842;28;20030;-67
2023/10/29 08:24:06;;;;;;;0.65;0.60;;;;;;;14.98;100.00;98664.19;4992360;28;20065;-67
2023/10/29 08:26:32;;;;;;;1.00;0.68;;;;;;;15.05;100.00;98649.66;4995076;28;20034;-68
2023/10/29 08:28:57;;;;;;;0.63;0.60;;;;;;;15.15;100.00;98643.16;4994468;28;20046;-67
2023/10/29 08:31:23;;;;;;;0.47;0.47;;;;;;;15.08;100.00;98643.38;4995135;28;20038;-67
2023/10/29 08:33:49;;;;;;;1.75;0.52;;;;;;;15.11;100.00;98664.22;4992366;28;20104;-67
2023/10/29 08:36:18;;;;;;;0.77;0.68;;;;;;;15.08;100.00;98673.97;4993445;28;20568;-67
2023/10/29 08:38:43;;;;;;;0.60;0.50;;;;;;;14.94;100.00;98660.81;4987864;28;20093;-67
2023/10/29 08:41:16;;;;;;;0.82;0.60;;;;;;;15.05;100.00;98660.50;4994610;28;20548;-67
2023/10/29 08:43:47;;;;;;;1.48;0.55;;;;;;;15.10;100.00;98668.88;4994464;28;20037;-68
2023/10/29 08:46:12;;;;;;;0.63;0.60;;;;;;;15.13;100.00;98689.72;4989369;28;20038;-67
2023/10/29 08:48:39;;;;;;;0.52;0.52;;;;;;;15.21;100.00;98692.97;4992046;28;20040;-67
2023/10/29 08:51:05;;;;;;;0.98;0.57;;;;;;;15.31;100.00;98686.47;4990253;28;20042;-67
2023/10/29 08:53:30;;;;;;;1.30;0.68;;;;;;;15.32;100.00;98675.16;4996044;28;20026;-68
2023/10/29 08:55:56;;;;;;;1.42;0.70;;;;;;;15.24;100.00;98673.09;4989732;28;20054;-68
2023/10/29 08:58:21;;;;;;;1.45;0.60;;;;;;;15.25;100.00;98672.66;4989177;28;20056;-68
2023/10/29 09:00:47;;;;;;;0.90;0.65;;;;;;;15.30;100.00;98665.94;4984440;28;20030;-67
2023/10/29 09:03:14;;;;;;;3.38;0.90;;;;;;;15.32;100.00;98664.31;4993306;28;20148;-67
2023/10/29 09:05:46;;;;;;;0.60;0.60;;;;;;;15.31;100.00;98662.03;4991687;28;20022;-67
2023/10/29 09:08:11;;;;;;;1.08;0.90;;;;;;;15.38;100.00;98673.44;4989537;28;20030;-67
2023/10/29 09:10:41;;;;;;;0.85;0.77;;;;;;;15.45;100.00;98683.31;4988241;28;20033;-67
2023/10/29 09:13:07;;;;;;;3.53;0.80;;;;;;;15.55;100.00;98676.03;4986710;28;20027;-68
2023/10/29 09:15:32;;;;;;;1.60;0.80;;;;;;;15.58;100.00;98670.47;4986251;28;20030;-67
2023/10/29 09:17:58;;;;;;;0.73;0.65;;;;;;;15.74;100.00;98661.44;4988792;28;20096;-67
2023/10/29 09:20:23;;;;;;;0.75;0.57;;;;;;;15.77;99.79;98650.50;4987856;28;20565;-68
2023/10/29 09:22:49;;;;;;;1.23;0.82;;;;;;;15.94;99.11;98654.56;4997672;28;20042;-67
2023/10/29 09:25:14;;;;;;;1.10;0.73;;;;;;;16.01;99.37;98659.75;4991224;28;20497;-68
2023/10/29 09:27:41;;;;;;;1.80;1.30;;;;;;;16.24;99.66;98689.19;4990488;28;20101;-68
2023/10/29 09:30:07;;;;;;;1.83;1.17;;;;;;;16.24;98.27;98686.47;4976889;28;20503;-67
2023/10/29 09:32:35;;;;;;;1.15;0.80;;;;;;;16.24;97.07;98686.47;4973496;28;20494;-68
2023/10/29 09:35:01;;;;;;;2.17;1.20;;;;;;;16.38;97.78;98687.19;4990463;28;20050;-67
2023/10/29 09:37:26;;;;;;;1.48;0.55;;;;;;;16.47;96.36;98687.25;4991984;28;20069;-68
2023/10/29 09:39:51;;;;;;;0.73;0.65;;;;;;;16.47;95.88;98700.84;4989306;28;20037;-68
2023/10/29 09:42:22;;;;;;;1.70;0.90;;;;;;;16.49;95.86;98698.47;4987574;28;20034;-68
2023/10/29 09:44:49;;;;;;;1.47;0.80;;;;;;;16.24;96.32;98702.78;4983981;28;20038;-68
2023/10/29 09:47:18;;;;;;;0.68;0.60;;;;;;;16.51;96.13;98717.81;4987790;28;20281;-67
2023/10/29 09:49:44;;;;;;;1.30;0.77;;;;;;;16.53;95.69;98697.13;4982137;28;20521;-67
2023/10/29 09:52:10;;;;;;;1.38;1.13;;;;;;;16.75;96.02;98703.34;4987343;28;20035;-67
2023/10/29 09:54:40;;;;;;;0.47;0.47;;;;;;;16.99;95.70;98707.09;4989889;28;20045;-67
2023/10/29 09:57:06;;;;;;;0.60;0.60;;;;;;;17.20;94.09;98693.91;4985380;28;20085;-68
2023/10/29 09:59:32;;;;;;;0.73;0.70;;;;;;;16.94;92.97;98685.16;4986524;28;20916;-68
2023/10/29 10:01:58;;;;;;;0.60;0.60;;;;;;;17.21;93.76;98679.84;4988924;28;20031;-67
2023/10/29 10:04:23;;;;;;;1.27;0.82;;;;;;;17.37;92.94;98695.94;4982196;28;20106;-67
2023/10/29 10:06:50;;;;;;;2.72;0.93;;;;;;;17.43;93.44;98696.09;4976493;28;20506;-68
2023/10/29 10:09:15;;;;;;;1.00;0.60;;;;;;;17.47;93.33;98686.59;4978111;28;20057;-68
2023/10/29 10:11:41;;;;;;;0.55;0.45;;;;;;;17.73;92.61;98693.34;4976744;28;20479;-68
2023/10/29 10:14:06;;;;;;;0.85;0.63;;;;;;;17.78;91.80;98703.66;4976835;28;20093;-68
2023/10/29 10:16:32;;;;;;;1.42;0.73;;;;;;;17.76;90.79;98700.63;4983168;28;20488;-68
2023/10/29 10:18:59;;;;;;;2.88;1.05;;;;;;;17.85;90.23;98692.47;5002290;28;20045;-68
2023/10/29 10:21:46;;;;;;;2.10;0.60;;;;;;;17.91;90.29;98695.34;4978821;28;20022;-68
2023/10/29 10:24:12;;;;;;;2.33;0.60;;;;;;;17.72;90.19;98694.56;4982878;28;21773;-68
2023/10/29 10:26:38;;;;;;;1.13;0.60;;;;;;;17.81;88.86;98691.84;4981324;28;20121;-67
2023/10/29 10:29:08;;;;;;;3.05;0.60;;;;;;;17.85;88.08;98691.69;4990738;28;20065;-67
2023/10/29 10:31:35;;;;;;;1.17;0.55;;;;;;;18.02;88.97;98701.84;5007117;28;20030;-67
2023/10/29 10:34:11;;;;;;;0.75;0.60;;;;;;;17.87;86.29;98700.16;4975321;28;20533;-68
2023/10/29 10:36:37;;;;;;;4.03;0.47;;;;;;;17.72;87.68;98713.63;4996208;28;20034;-67
2023/10/29 10:39:03;;;;;;;1.35;0.70;;;;;;;17.53;88.08;98703.88;4986966;28;20031;-67
2023/10/29 10:41:38;;;;;;;0.60;0.60;;;;;;;17.43;88.05;98710.47;4983486;28;20034;-69
2023/10/29 10:44:10;;;;;;;1.48;0.95;;;;;;;17.61;87.25;98728.88;4985938;28;20766;-68
2023/10/29 10:46:37;;;;;;;1.08;0.65;;;;;;;17.67;87.27;98727.81;4981049;28;20042;-67
2023/10/29 10:49:06;;;;;;;5.10;0.52;;;;;;;17.58;87.93;98733.22;4988214;28;20050;-67
2023/10/29 10:51:34;;;;;;;0.98;0.63;;;;;;;17.54;87.77;98724.44;4982810;28;20180;-67
2023/10/29 10:54:04;;;;;;;1.15;0.50;;;;;;;17.66;88.00;98739.16;4988326;28;20034;-68
2023/10/29 10:56:35;;;;;;;3.03;0.75;;;;;;;17.76;86.81;98738.75;4982915;28;20145;-68
2023/10/29 10:59:03;;;;;;;1.20;0.90;;;;;;;17.60;85.96;98740.94;4988069;28;20031;-68
2023/10/29 11:01:29;;;;;;;1.70;0.40;;;;;;;17.54;85.41;98743.50;4986616;28;20022;-68
2023/10/29 11:03:57;;;;;;;0.70;0.50;;;;;;;17.56;87.93;98732.16;4986954;28;20042;-67
2023/10/29 11:06:22;;;;;;;1.17;0.60;;;;;;;17.51;88.03;98722.63;4987934;28;20077;-67
2023/10/29 11:08:48;;;;;;;0.93;0.47;;;;;;;17.54;88.83;98729.88;4984201;28;20042;-68
2023/10/29 11:11:15;;;;;;;0.50;0.43;;;;;;;17.47;89.64;98726.66;4973258;28;20687;-67
2023/10/29 11:13:41;;;;;;;1.17;0.73;;;;;;;17.21;92.28;98738.97;4990266;28;20645;-67
2023/10/29 11:16:24;;;;;;;3.60;0.77;;;;;;;17.09;95.18;98756.88;4990859;28;20113;-67
2023/10/29 11:18:51;;;;;;;4.00;0.60;;;;;;;17.05;95.21;98750.81;5001615;28;20163;-67
2023/10/29 11:21:43;;;;;;;0.85;0.60;;;;;;;17.11;94.99;98752.50;4991501;28;20042;-68
2023/10/29 11:24:20;;;;;;;0.30;0.30;;;;;;;16.80;97.04;98761.84;4985064;28;20046;-67